sensor_id;sensor_type;location;lat;lon;timestamp;P1;P2;P0
42002;PMS7003;27693;50.506;30.832;2023-05-21T00:00:20;4.20;3.50;2.50
42002;PMS7003;27693;50.506;30.832;2023-05-21T00:01:23;4.30;4.10;3.30
42002;PMS7003;27693;50.506;30.832;2023-05-21T00:02:26;6.50;4.50;3.50
42002;PMS7003;27693;50.506;30.832;2023-05-21T00:03:31;5.50;3.70;3.10
42002;PMS7003;27693;50.506;30.832;2023-05-21T00:04:34;3.50;3.50;3.00
42002;PMS7003;27693;50.506;30.832;2023-05-21T00:05:37;4.60;3.50;3.00
42002;PMS7003;27693;50.506;30.832;2023-05-21T00:06:40;5.10;4.30;3.70
42002;PMS7003;27693;50.506;30.832;2023-05-21T00:07:42;5.60;3.60;3.00
42002;PMS7003;27693;50.506;30.832;2023-05-21T00:08:46;6.40;3.80;3.20
42002;PMS7003;27693;50.506;30.832;2023-05-21T00:09:49;5.00;4.00;3.40
42002;PMS7003;27693;50.506;30.832;2023-05-21T00:10:52;4.90;4.60;3.70
42002;PMS7003;27693;50.506;30.832;2023-05-21T00:11:55;3.73;3.73;3.09
42002;PMS7003;27693;50.506;30.832;2023-05-21T00:12:57;5.00;4.40;3.80
42002;PMS7003;27693;50.506;30.832;2023-05-21T00:14:00;3.70;3.70;2.90
42002;PMS7003;27693;50.506;30.832;2023-05-21T00:15:03;4.50;4.50;4.00
42002;PMS7003;27693;50.506;30.832;2023-05-21T00:16:07;4.00;4.00;3.20
42002;PMS7003;27693;50.506;30.832;2023-05-21T00:17:11;4.10;2.80;2.50
42002;PMS7003;27693;50.506;30.832;2023-05-21T00:18:13;3.70;3.70;3.40
42002;PMS7003;27693;50.506;30.832;2023-05-21T00:19:16;3.27;3.27;2.82
42002;PMS7003;27693;50.506;30.832;2023-05-21T00:20:19;4.70;3.70;3.50
42002;PMS7003;27693;50.506;30.832;2023-05-21T00:21:21;3.90;3.70;2.80
42002;PMS7003;27693;50.506;30.832;2023-05-21T00:22:25;4.00;3.80;3.50
42002;PMS7003;27693;50.506;30.832;2023-05-21T00:23:28;5.00;4.00;3.00
42002;PMS7003;27693;50.506;30.832;2023-05-21T00:24:32;4.70;3.30;3.30
42002;PMS7003;27693;50.506;30.832;2023-05-21T00:25:34;3.80;3.30;2.70
42002;PMS7003;27693;50.506;30.832;2023-05-21T00:26:36;3.40;3.30;2.40
42002;PMS7003;27693;50.506;30.832;2023-05-21T00:27:39;3.30;3.00;2.80
42002;PMS7003;27693;50.506;30.832;2023-05-21T00:28:41;4.90;4.40;3.40
42002;PMS7003;27693;50.506;30.832;2023-05-21T00:29:44;5.00;4.20;3.70
42002;PMS7003;27693;50.506;30.832;2023-05-21T00:30:46;5.70;3.80;3.70
42002;PMS7003;27693;50.506;30.832;2023-05-21T00:31:49;3.82;3.82;3.55
42002;PMS7003;27693;50.506;30.832;2023-05-21T00:32:52;3.90;3.90;3.00
42002;PMS7003;27693;50.506;30.832;2023-05-21T00:33:55;4.10;3.60;2.90
42002;PMS7003;27693;50.506;30.832;2023-05-21T00:34:57;4.50;3.80;3.40
42002;PMS7003;27693;50.506;30.832;2023-05-21T00:36:00;3.70;3.40;2.80
42002;PMS7003;27693;50.506;30.832;2023-05-21T00:37:02;4.60;3.60;3.00
42002;PMS7003;27693;50.506;30.832;2023-05-21T00:38:05;4.50;4.00;3.70
42002;PMS7003;27693;50.506;30.832;2023-05-21T00:39:09;4.00;3.50;2.90
42002;PMS7003;27693;50.506;30.832;2023-05-21T00:40:12;5.50;3.50;3.50
42002;PMS7003;27693;50.506;30.832;2023-05-21T00:41:15;2.64;2.00;1.82
42002;PMS7003;27693;50.506;30.832;2023-05-21T00:42:19;4.20;4.20;3.60
42002;PMS7003;27693;50.506;30.832;2023-05-21T00:43:21;5.40;5.30;4.20
42002;PMS7003;27693;50.506;30.832;2023-05-21T00:44:26;5.50;4.40;3.30
42002;PMS7003;27693;50.506;30.832;2023-05-21T00:45:31;3.60;3.60;3.00
42002;PMS7003;27693;50.506;30.832;2023-05-21T00:46:33;6.50;4.00;3.30
42002;PMS7003;27693;50.506;30.832;2023-05-21T00:47:37;6.00;5.90;4.40
42002;PMS7003;27693;50.506;30.832;2023-05-21T00:48:40;5.45;3.00;3.00
42002;PMS7003;27693;50.506;30.832;2023-05-21T00:49:43;4.50;3.80;3.30
42002;PMS7003;27693;50.506;30.832;2023-05-21T00:50:46;3.90;3.70;2.80
42002;PMS7003;27693;50.506;30.832;2023-05-21T00:51:50;4.90;3.40;2.80
42002;PMS7003;27693;50.506;30.832;2023-05-21T00:52:52;4.40;3.90;3.00
42002;PMS7003;27693;50.506;30.832;2023-05-21T00:53:55;5.80;4.20;3.70
42002;PMS7003;27693;50.506;30.832;2023-05-21T00:54:59;4.70;3.90;2.70
42002;PMS7003;27693;50.506;30.832;2023-05-21T00:56:02;5.00;3.60;3.00
42002;PMS7003;27693;50.506;30.832;2023-05-21T00:57:05;7.70;4.90;4.60
42002;PMS7003;27693;50.506;30.832;2023-05-21T00:58:10;8.10;5.00;3.60
42002;PMS7003;27693;50.506;30.832;2023-05-21T00:59:14;4.36;3.91;2.82
42002;PMS7003;27693;50.506;30.832;2023-05-21T01:00:17;4.50;3.70;3.50
42002;PMS7003;27693;50.506;30.832;2023-05-21T01:01:20;4.90;4.40;3.10
42002;PMS7003;27693;50.506;30.832;2023-05-21T01:02:25;4.50;3.40;2.80
42002;PMS7003;27693;50.506;30.832;2023-05-21T01:03:29;4.90;4.10;3.60
42002;PMS7003;27693;50.506;30.832;2023-05-21T01:04:32;5.60;4.20;3.50
42002;PMS7003;27693;50.506;30.832;2023-05-21T01:05:34;5.20;4.20;3.40
42002;PMS7003;27693;50.506;30.832;2023-05-21T01:06:38;5.20;4.00;3.40
42002;PMS7003;27693;50.506;30.832;2023-05-21T01:07:40;5.70;4.20;3.70
42002;PMS7003;27693;50.506;30.832;2023-05-21T01:08:44;3.80;3.80;3.00
42002;PMS7003;27693;50.506;30.832;2023-05-21T01:09:47;5.10;3.70;3.20
42002;PMS7003;27693;50.506;30.832;2023-05-21T01:10:50;4.90;3.70;3.10
42002;PMS7003;27693;50.506;30.832;2023-05-21T01:11:54;0.00;0.00;0.00
42002;PMS7003;27693;50.506;30.832;2023-05-21T01:12:57;4.80;4.80;4.10
42002;PMS7003;27693;50.506;30.832;2023-05-21T01:14:01;7.40;4.30;3.40
42002;PMS7003;27693;50.506;30.832;2023-05-21T01:15:05;5.10;4.20;3.20
42002;PMS7003;27693;50.506;30.832;2023-05-21T01:16:11;4.20;4.00;2.70
42002;PMS7003;27693;50.506;30.832;2023-05-21T01:17:14;4.90;4.40;4.20
42002;PMS7003;27693;50.506;30.832;2023-05-21T01:18:17;4.90;4.00;3.20
42002;PMS7003;27693;50.506;30.832;2023-05-21T01:19:21;6.00;4.20;3.10
42002;PMS7003;27693;50.506;30.832;2023-05-21T01:20:25;5.50;4.30;3.30
42002;PMS7003;27693;50.506;30.832;2023-05-21T01:21:32;9.00;4.90;4.20
42002;PMS7003;27693;50.506;30.832;2023-05-21T01:22:40;3.70;3.70;2.80
42002;PMS7003;27693;50.506;30.832;2023-05-21T01:23:55;6.70;4.10;3.70
42002;PMS7003;27693;50.506;30.832;2023-05-21T01:24:57;4.20;4.20;3.50
42002;PMS7003;27693;50.506;30.832;2023-05-21T01:26:01;6.90;3.00;2.70
42002;PMS7003;27693;50.506;30.832;2023-05-21T01:27:04;5.20;4.30;3.40
42002;PMS7003;27693;50.506;30.832;2023-05-21T01:28:08;5.70;4.70;4.30
42002;PMS7003;27693;50.506;30.832;2023-05-21T01:29:11;4.10;3.20;3.10
42002;PMS7003;27693;50.506;30.832;2023-05-21T01:30:16;6.10;3.70;3.30
42002;PMS7003;27693;50.506;30.832;2023-05-21T01:31:22;4.60;4.40;4.10
42002;PMS7003;27693;50.506;30.832;2023-05-21T01:32:33;4.80;4.80;4.00
42002;PMS7003;27693;50.506;30.832;2023-05-21T01:33:46;4.50;4.50;3.90
42002;PMS7003;27693;50.506;30.832;2023-05-21T01:34:59;4.90;3.80;3.10
42002;PMS7003;27693;50.506;30.832;2023-05-21T01:36:08;2.90;2.90;2.20
42002;PMS7003;27693;50.506;30.832;2023-05-21T01:37:16;4.00;3.80;3.20
42002;PMS7003;27693;50.506;30.832;2023-05-21T01:38:30;4.40;4.40;3.70
42002;PMS7003;27693;50.506;30.832;2023-05-21T01:39:35;4.60;3.40;2.90
42002;PMS7003;27693;50.506;30.832;2023-05-21T01:41:52;5.30;4.90;4.30
42002;PMS7003;27693;50.506;30.832;2023-05-21T01:42:57;6.50;4.70;4.00
42002;PMS7003;27693;50.506;30.832;2023-05-21T01:44:01;6.50;3.70;3.00
42002;PMS7003;27693;50.506;30.832;2023-05-21T01:45:06;5.90;5.00;3.50
42002;PMS7003;27693;50.506;30.832;2023-05-21T01:46:11;4.80;4.20;3.10
42002;PMS7003;27693;50.506;30.832;2023-05-21T01:47:16;7.60;4.90;4.50
42002;PMS7003;27693;50.506;30.832;2023-05-21T01:48:21;6.00;4.00;3.00
42002;PMS7003;27693;50.506;30.832;2023-05-21T01:49:26;7.00;5.50;4.80
42002;PMS7003;27693;50.506;30.832;2023-05-21T01:50:30;6.70;5.50;3.70
42002;PMS7003;27693;50.506;30.832;2023-05-21T01:51:34;6.40;4.50;3.20
42002;PMS7003;27693;50.506;30.832;2023-05-21T01:52:38;4.30;4.30;3.40
42002;PMS7003;27693;50.506;30.832;2023-05-21T01:53:42;5.80;4.90;4.60
42002;PMS7003;27693;50.506;30.832;2023-05-21T01:54:44;6.00;4.80;4.10
42002;PMS7003;27693;50.506;30.832;2023-05-21T01:55:46;6.60;4.60;3.70
42002;PMS7003;27693;50.506;30.832;2023-05-21T01:56:50;3.60;3.10;3.00
42002;PMS7003;27693;50.506;30.832;2023-05-21T01:57:54;6.70;4.00;3.00
42002;PMS7003;27693;50.506;30.832;2023-05-21T01:58:57;7.30;4.20;3.60
42002;PMS7003;27693;50.506;30.832;2023-05-21T02:00:00;7.20;4.80;4.40
42002;PMS7003;27693;50.506;30.832;2023-05-21T02:01:04;7.10;5.40;4.20
42002;PMS7003;27693;50.506;30.832;2023-05-21T02:02:06;6.00;4.70;4.00
42002;PMS7003;27693;50.506;30.832;2023-05-21T02:03:09;6.90;5.50;4.30
42002;PMS7003;27693;50.506;30.832;2023-05-21T02:04:11;8.40;5.10;3.80
42002;PMS7003;27693;50.506;30.832;2023-05-21T02:05:14;5.00;4.60;4.00
42002;PMS7003;27693;50.506;30.832;2023-05-21T02:06:16;9.50;5.80;4.60
42002;PMS7003;27693;50.506;30.832;2023-05-21T02:07:19;4.80;3.70;3.40
42002;PMS7003;27693;50.506;30.832;2023-05-21T02:08:22;8.10;4.00;3.20
42002;PMS7003;27693;50.506;30.832;2023-05-21T02:09:24;7.18;4.73;4.00
42002;PMS7003;27693;50.506;30.832;2023-05-21T02:10:26;5.20;4.20;3.80
42002;PMS7003;27693;50.506;30.832;2023-05-21T02:11:29;4.80;4.80;3.80
42002;PMS7003;27693;50.506;30.832;2023-05-21T02:12:31;7.50;4.00;3.40
42002;PMS7003;27693;50.506;30.832;2023-05-21T02:13:35;7.20;6.40;4.80
42002;PMS7003;27693;50.506;30.832;2023-05-21T02:14:39;4.40;3.60;3.20
42002;PMS7003;27693;50.506;30.832;2023-05-21T02:15:42;5.09;4.73;3.82
42002;PMS7003;27693;50.506;30.832;2023-05-21T02:16:46;5.80;5.80;4.50
42002;PMS7003;27693;50.506;30.832;2023-05-21T02:17:49;6.60;4.90;4.50
42002;PMS7003;27693;50.506;30.832;2023-05-21T02:18:51;4.00;4.00;4.00
42002;PMS7003;27693;50.506;30.832;2023-05-21T02:19:55;5.40;5.20;4.00
42002;PMS7003;27693;50.506;30.832;2023-05-21T02:20:58;7.50;4.50;3.90
42002;PMS7003;27693;50.506;30.832;2023-05-21T02:22:00;7.90;5.20;3.90
42002;PMS7003;27693;50.506;30.832;2023-05-21T02:23:03;8.50;4.50;3.20
42002;PMS7003;27693;50.506;30.832;2023-05-21T02:24:05;5.10;4.10;3.50
42002;PMS7003;27693;50.506;30.832;2023-05-21T02:25:08;5.50;4.00;3.00
42002;PMS7003;27693;50.506;30.832;2023-05-21T02:26:12;7.00;5.10;3.80
42002;PMS7003;27693;50.506;30.832;2023-05-21T02:27:14;7.70;5.30;4.00
42002;PMS7003;27693;50.506;30.832;2023-05-21T02:28:18;7.10;5.20;3.80
42002;PMS7003;27693;50.506;30.832;2023-05-21T02:29:22;3.60;3.60;2.70
42002;PMS7003;27693;50.506;30.832;2023-05-21T02:30:24;5.60;5.00;3.80
42002;PMS7003;27693;50.506;30.832;2023-05-21T02:31:27;8.00;6.82;4.73
42002;PMS7003;27693;50.506;30.832;2023-05-21T02:32:30;6.36;4.82;4.18
42002;PMS7003;27693;50.506;30.832;2023-05-21T02:33:33;5.64;5.64;4.55
42002;PMS7003;27693;50.506;30.832;2023-05-21T02:34:35;7.10;4.00;3.80
42002;PMS7003;27693;50.506;30.832;2023-05-21T02:35:39;7.70;6.00;4.40
42002;PMS7003;27693;50.506;30.832;2023-05-21T02:36:42;6.30;4.50;4.00
42002;PMS7003;27693;50.506;30.832;2023-05-21T02:37:44;6.80;5.70;3.70
42002;PMS7003;27693;50.506;30.832;2023-05-21T02:38:49;6.30;4.80;4.10
42002;PMS7003;27693;50.506;30.832;2023-05-21T02:39:51;5.50;4.70;4.30
42002;PMS7003;27693;50.506;30.832;2023-05-21T02:40:53;7.60;6.80;5.10
42002;PMS7003;27693;50.506;30.832;2023-05-21T02:41:55;6.20;5.50;4.40
42002;PMS7003;27693;50.506;30.832;2023-05-21T02:42:58;8.80;6.70;4.20
42002;PMS7003;27693;50.506;30.832;2023-05-21T02:44:00;12.80;8.00;5.70
42002;PMS7003;27693;50.506;30.832;2023-05-21T02:45:03;9.70;6.90;4.80
42002;PMS7003;27693;50.506;30.832;2023-05-21T02:46:07;6.50;5.60;4.30
42002;PMS7003;27693;50.506;30.832;2023-05-21T02:47:09;9.70;6.20;4.40
42002;PMS7003;27693;50.506;30.832;2023-05-21T02:48:13;8.10;5.90;4.00
42002;PMS7003;27693;50.506;30.832;2023-05-21T02:49:15;8.30;6.50;4.80
42002;PMS7003;27693;50.506;30.832;2023-05-21T02:50:19;13.30;8.00;5.80
42002;PMS7003;27693;50.506;30.832;2023-05-21T02:51:25;6.90;6.70;5.30
42002;PMS7003;27693;50.506;30.832;2023-05-21T02:52:27;8.40;7.00;5.20
42002;PMS7003;27693;50.506;30.832;2023-05-21T02:53:30;5.20;5.20;4.20
42002;PMS7003;27693;50.506;30.832;2023-05-21T02:54:32;3.30;2.70;1.70
42002;PMS7003;27693;50.506;30.832;2023-05-21T02:55:35;6.80;5.30;4.00
42002;PMS7003;27693;50.506;30.832;2023-05-21T02:56:38;7.70;5.00;4.10
42002;PMS7003;27693;50.506;30.832;2023-05-21T02:57:40;7.00;6.70;4.10
42002;PMS7003;27693;50.506;30.832;2023-05-21T02:58:43;5.20;4.70;3.20
42002;PMS7003;27693;50.506;30.832;2023-05-21T02:59:46;5.10;4.90;4.40
42002;PMS7003;27693;50.506;30.832;2023-05-21T03:00:48;6.40;5.60;4.00
42002;PMS7003;27693;50.506;30.832;2023-05-21T03:01:52;7.30;6.10;3.50
42002;PMS7003;27693;50.506;30.832;2023-05-21T03:02:55;2.60;2.60;2.20
42002;PMS7003;27693;50.506;30.832;2023-05-21T03:03:58;9.50;7.20;5.20
42002;PMS7003;27693;50.506;30.832;2023-05-21T03:05:00;7.40;6.60;4.90
42002;PMS7003;27693;50.506;30.832;2023-05-21T03:06:03;4.30;3.20;2.50
42002;PMS7003;27693;50.506;30.832;2023-05-21T03:07:05;6.30;5.60;3.60
42002;PMS7003;27693;50.506;30.832;2023-05-21T03:08:11;8.50;6.00;4.90
42002;PMS7003;27693;50.506;30.832;2023-05-21T03:09:14;6.60;5.70;4.50
42002;PMS7003;27693;50.506;30.832;2023-05-21T03:10:17;8.70;6.00;5.30
42002;PMS7003;27693;50.506;30.832;2023-05-21T03:11:20;6.50;4.90;3.50
42002;PMS7003;27693;50.506;30.832;2023-05-21T03:12:23;8.00;4.60;3.60
42002;PMS7003;27693;50.506;30.832;2023-05-21T03:13:25;7.80;6.80;4.80
42002;PMS7003;27693;50.506;30.832;2023-05-21T03:14:27;7.60;7.40;5.10
42002;PMS7003;27693;50.506;30.832;2023-05-21T03:15:30;8.60;6.50;4.90
42002;PMS7003;27693;50.506;30.832;2023-05-21T03:16:35;9.20;6.70;4.60
42002;PMS7003;27693;50.506;30.832;2023-05-21T03:17:39;8.90;6.10;5.10
42002;PMS7003;27693;50.506;30.832;2023-05-21T03:18:43;8.10;4.20;3.20
42002;PMS7003;27693;50.506;30.832;2023-05-21T03:19:46;8.80;7.40;5.30
42002;PMS7003;27693;50.506;30.832;2023-05-21T03:20:49;10.70;8.30;6.80
42002;PMS7003;27693;50.506;30.832;2023-05-21T03:21:52;7.90;5.70;4.10
42002;PMS7003;27693;50.506;30.832;2023-05-21T03:22:55;7.80;6.00;4.50
42002;PMS7003;27693;50.506;30.832;2023-05-21T03:23:58;8.50;6.00;5.00
42002;PMS7003;27693;50.506;30.832;2023-05-21T03:25:01;7.80;5.70;4.20
42002;PMS7003;27693;50.506;30.832;2023-05-21T03:26:04;5.30;3.50;2.50
42002;PMS7003;27693;50.506;30.832;2023-05-21T03:27:06;5.30;4.40;3.60
42002;PMS7003;27693;50.506;30.832;2023-05-21T03:28:09;7.90;6.80;4.90
42002;PMS7003;27693;50.506;30.832;2023-05-21T03:29:20;6.30;6.30;5.30
42002;PMS7003;27693;50.506;30.832;2023-05-21T03:30:22;7.30;6.40;4.20
42002;PMS7003;27693;50.506;30.832;2023-05-21T03:31:26;5.90;4.40;2.90
42002;PMS7003;27693;50.506;30.832;2023-05-21T03:32:40;6.60;4.90;4.00
42002;PMS7003;27693;50.506;30.832;2023-05-21T03:33:44;6.70;6.00;4.20
42002;PMS7003;27693;50.506;30.832;2023-05-21T03:34:49;9.00;6.70;4.40
42002;PMS7003;27693;50.506;30.832;2023-05-21T03:35:52;7.30;5.00;4.60
42002;PMS7003;27693;50.506;30.832;2023-05-21T03:36:57;4.90;4.90;3.90
42002;PMS7003;27693;50.506;30.832;2023-05-21T03:38:00;9.00;5.40;3.90
42002;PMS7003;27693;50.506;30.832;2023-05-21T03:39:03;9.18;7.82;6.18
42002;PMS7003;27693;50.506;30.832;2023-05-21T03:40:08;7.00;6.80;5.80
42002;PMS7003;27693;50.506;30.832;2023-05-21T03:41:11;10.30;6.80;5.00
42002;PMS7003;27693;50.506;30.832;2023-05-21T03:42:14;7.40;5.90;4.50
42002;PMS7003;27693;50.506;30.832;2023-05-21T03:43:21;7.80;6.00;5.00
42002;PMS7003;27693;50.506;30.832;2023-05-21T03:44:24;1.00;0.40;0.20
42002;PMS7003;27693;50.506;30.832;2023-05-21T03:45:28;8.10;5.40;5.20
42002;PMS7003;27693;50.506;30.832;2023-05-21T03:46:49;7.00;7.00;5.30
42002;PMS7003;27693;50.506;30.832;2023-05-21T03:47:56;6.50;6.30;4.30
42002;PMS7003;27693;50.506;30.832;2023-05-21T03:48:59;8.09;5.73;3.91
42002;PMS7003;27693;50.506;30.832;2023-05-21T03:50:02;6.73;6.00;4.18
42002;PMS7003;27693;50.506;30.832;2023-05-21T03:51:06;7.40;6.70;5.00
42002;PMS7003;27693;50.506;30.832;2023-05-21T03:52:08;8.30;7.20;5.00
42002;PMS7003;27693;50.506;30.832;2023-05-21T03:53:11;10.50;7.90;6.60
42002;PMS7003;27693;50.506;30.832;2023-05-21T03:54:14;6.50;6.00;3.60
42002;PMS7003;27693;50.506;30.832;2023-05-21T03:55:17;15.00;11.50;7.80
42002;PMS7003;27693;50.506;30.832;2023-05-21T03:56:19;7.20;6.00;4.80
42002;PMS7003;27693;50.506;30.832;2023-05-21T03:57:22;7.50;5.90;5.10
42002;PMS7003;27693;50.506;30.832;2023-05-21T03:58:24;9.40;8.00;6.20
42002;PMS7003;27693;50.506;30.832;2023-05-21T03:59:27;7.20;6.00;5.10
42002;PMS7003;27693;50.506;30.832;2023-05-21T04:00:30;6.60;3.80;3.20
42002;PMS7003;27693;50.506;30.832;2023-05-21T04:01:39;10.40;7.10;5.80
42002;PMS7003;27693;50.506;30.832;2023-05-21T04:02:43;7.90;7.70;6.20
42002;PMS7003;27693;50.506;30.832;2023-05-21T04:03:46;8.20;8.20;6.00
42002;PMS7003;27693;50.506;30.832;2023-05-21T04:04:50;10.60;8.10;6.10
42002;PMS7003;27693;50.506;30.832;2023-05-21T04:05:54;8.10;6.70;5.20
42002;PMS7003;27693;50.506;30.832;2023-05-21T04:06:57;8.82;6.91;4.55
42002;PMS7003;27693;50.506;30.832;2023-05-21T04:08:00;9.20;6.40;5.00
42002;PMS7003;27693;50.506;30.832;2023-05-21T04:09:03;10.30;6.70;4.70
42002;PMS7003;27693;50.506;30.832;2023-05-21T04:10:07;10.10;7.90;5.60
42002;PMS7003;27693;50.506;30.832;2023-05-21T04:11:10;9.20;8.40;5.80
42002;PMS7003;27693;50.506;30.832;2023-05-21T04:12:13;11.70;8.60;6.30
42002;PMS7003;27693;50.506;30.832;2023-05-21T04:13:15;11.00;9.20;7.10
42002;PMS7003;27693;50.506;30.832;2023-05-21T04:14:19;8.90;8.10;5.90
42002;PMS7003;27693;50.506;30.832;2023-05-21T04:15:24;5.70;4.10;2.10
42002;PMS7003;27693;50.506;30.832;2023-05-21T04:16:28;8.30;6.90;4.80
42002;PMS7003;27693;50.506;30.832;2023-05-21T04:17:32;7.70;6.90;4.90
42002;PMS7003;27693;50.506;30.832;2023-05-21T04:18:36;10.60;8.60;6.50
42002;PMS7003;27693;50.506;30.832;2023-05-21T04:19:39;9.00;5.64;3.64
42002;PMS7003;27693;50.506;30.832;2023-05-21T04:20:42;9.60;8.20;7.60
42002;PMS7003;27693;50.506;30.832;2023-05-21T04:21:46;10.20;8.10;5.70
42002;PMS7003;27693;50.506;30.832;2023-05-21T04:22:48;9.50;8.20;4.90
42002;PMS7003;27693;50.506;30.832;2023-05-21T04:23:52;12.60;8.50;6.90
42002;PMS7003;27693;50.506;30.832;2023-05-21T04:24:59;9.40;9.00;7.00
42002;PMS7003;27693;50.506;30.832;2023-05-21T04:26:03;10.50;7.30;5.00
42002;PMS7003;27693;50.506;30.832;2023-05-21T04:27:07;8.10;7.00;5.60
42002;PMS7003;27693;50.506;30.832;2023-05-21T04:28:10;9.50;8.50;6.00
42002;PMS7003;27693;50.506;30.832;2023-05-21T04:29:13;11.20;8.30;5.80
42002;PMS7003;27693;50.506;30.832;2023-05-21T04:30:17;8.20;8.10;4.80
42002;PMS7003;27693;50.506;30.832;2023-05-21T04:31:21;10.80;8.80;6.10
42002;PMS7003;27693;50.506;30.832;2023-05-21T04:32:25;11.90;8.50;7.00
42002;PMS7003;27693;50.506;30.832;2023-05-21T04:33:29;10.50;8.60;6.70
42002;PMS7003;27693;50.506;30.832;2023-05-21T04:34:32;7.40;7.20;6.30
42002;PMS7003;27693;50.506;30.832;2023-05-21T04:35:35;9.91;8.64;6.27
42002;PMS7003;27693;50.506;30.832;2023-05-21T04:36:38;10.45;9.36;6.18
42002;PMS7003;27693;50.506;30.832;2023-05-21T04:37:42;14.40;10.50;8.70
42002;PMS7003;27693;50.506;30.832;2023-05-21T04:38:47;11.70;9.10;6.20
42002;PMS7003;27693;50.506;30.832;2023-05-21T04:39:50;3.50;0.90;0.20
42002;PMS7003;27693;50.506;30.832;2023-05-21T04:40:52;6.80;6.50;5.40
42002;PMS7003;27693;50.506;30.832;2023-05-21T04:41:56;12.00;9.70;7.00
42002;PMS7003;27693;50.506;30.832;2023-05-21T04:42:59;9.10;8.40;5.70
42002;PMS7003;27693;50.506;30.832;2023-05-21T04:44:02;9.45;7.73;5.45
42002;PMS7003;27693;50.506;30.832;2023-05-21T04:45:07;11.40;8.90;7.00
42002;PMS7003;27693;50.506;30.832;2023-05-21T04:46:11;11.70;9.60;8.00
42002;PMS7003;27693;50.506;30.832;2023-05-21T04:47:15;10.60;9.10;7.20
42002;PMS7003;27693;50.506;30.832;2023-05-21T04:48:19;10.00;8.50;5.90
42002;PMS7003;27693;50.506;30.832;2023-05-21T04:49:23;11.10;10.30;6.80
42002;PMS7003;27693;50.506;30.832;2023-05-21T04:50:26;12.10;9.10;6.70
42002;PMS7003;27693;50.506;30.832;2023-05-21T04:51:30;9.60;7.70;5.60
42002;PMS7003;27693;50.506;30.832;2023-05-21T04:52:33;9.90;8.40;7.00
42002;PMS7003;27693;50.506;30.832;2023-05-21T04:53:35;8.60;6.70;4.80
42002;PMS7003;27693;50.506;30.832;2023-05-21T04:54:38;14.90;10.60;7.50
42002;PMS7003;27693;50.506;30.832;2023-05-21T04:55:42;11.20;10.10;9.20
42002;PMS7003;27693;50.506;30.832;2023-05-21T04:56:44;11.60;8.40;5.60
42002;PMS7003;27693;50.506;30.832;2023-05-21T04:57:49;10.00;10.00;8.40
42002;PMS7003;27693;50.506;30.832;2023-05-21T04:58:56;11.09;9.36;7.27
42002;PMS7003;27693;50.506;30.832;2023-05-21T04:59:56;10.70;8.30;5.20
42002;PMS7003;27693;50.506;30.832;2023-05-21T05:00:59;10.10;9.40;7.40
42002;PMS7003;27693;50.506;30.832;2023-05-21T05:02:05;11.90;9.30;6.50
42002;PMS7003;27693;50.506;30.832;2023-05-21T05:03:07;11.10;9.60;7.00
42002;PMS7003;27693;50.506;30.832;2023-05-21T05:04:09;10.30;9.30;6.40
42002;PMS7003;27693;50.506;30.832;2023-05-21T05:05:11;11.80;10.20;6.90
42002;PMS7003;27693;50.506;30.832;2023-05-21T05:06:14;6.55;6.55;4.82
42002;PMS7003;27693;50.506;30.832;2023-05-21T05:07:17;10.73;8.00;6.00
42002;PMS7003;27693;50.506;30.832;2023-05-21T05:08:19;8.30;7.80;5.80
42002;PMS7003;27693;50.506;30.832;2023-05-21T05:09:22;5.90;5.90;5.60
42002;PMS7003;27693;50.506;30.832;2023-05-21T05:10:27;11.10;8.50;6.30
42002;PMS7003;27693;50.506;30.832;2023-05-21T05:11:29;7.40;6.90;6.20
42002;PMS7003;27693;50.506;30.832;2023-05-21T05:12:33;8.90;6.40;5.40
42002;PMS7003;27693;50.506;30.832;2023-05-21T05:13:36;10.20;8.00;6.20
42002;PMS7003;27693;50.506;30.832;2023-05-21T05:14:39;7.70;7.30;5.80
42002;PMS7003;27693;50.506;30.832;2023-05-21T05:15:44;10.70;8.50;6.60
42002;PMS7003;27693;50.506;30.832;2023-05-21T05:16:48;7.30;7.30;5.70
42002;PMS7003;27693;50.506;30.832;2023-05-21T05:17:52;11.70;8.70;7.00
42002;PMS7003;27693;50.506;30.832;2023-05-21T05:18:55;6.40;6.00;5.00
42002;PMS7003;27693;50.506;30.832;2023-05-21T05:19:57;5.10;4.30;3.20
42002;PMS7003;27693;50.506;30.832;2023-05-21T05:21:01;9.40;7.20;5.30
42002;PMS7003;27693;50.506;30.832;2023-05-21T05:22:03;11.40;9.70;7.50
42002;PMS7003;27693;50.506;30.832;2023-05-21T05:23:06;7.20;5.10;4.20
42002;PMS7003;27693;50.506;30.832;2023-05-21T05:24:09;9.70;8.00;6.30
42002;PMS7003;27693;50.506;30.832;2023-05-21T05:25:13;7.90;7.20;5.60
42002;PMS7003;27693;50.506;30.832;2023-05-21T05:26:15;9.80;9.20;7.20
42002;PMS7003;27693;50.506;30.832;2023-05-21T05:27:18;10.64;6.45;5.18
42002;PMS7003;27693;50.506;30.832;2023-05-21T05:28:20;8.90;6.70;5.40
42002;PMS7003;27693;50.506;30.832;2023-05-21T05:29:23;11.80;9.70;6.90
42002;PMS7003;27693;50.506;30.832;2023-05-21T05:30:25;9.60;8.40;5.30
42002;PMS7003;27693;50.506;30.832;2023-05-21T05:31:30;10.10;6.80;5.80
42002;PMS7003;27693;50.506;30.832;2023-05-21T05:32:32;9.09;7.00;5.82
42002;PMS7003;27693;50.506;30.832;2023-05-21T05:33:35;9.50;7.40;6.30
42002;PMS7003;27693;50.506;30.832;2023-05-21T05:34:38;6.90;6.80;6.00
42002;PMS7003;27693;50.506;30.832;2023-05-21T05:35:41;7.36;7.36;5.82
42002;PMS7003;27693;50.506;30.832;2023-05-21T05:36:44;9.30;6.50;4.80
42002;PMS7003;27693;50.506;30.832;2023-05-21T05:37:47;10.40;7.60;6.80
42002;PMS7003;27693;50.506;30.832;2023-05-21T05:38:51;9.70;7.80;6.30
42002;PMS7003;27693;50.506;30.832;2023-05-21T05:39:54;9.40;6.90;4.90
42002;PMS7003;27693;50.506;30.832;2023-05-21T05:40:57;9.50;6.90;5.70
42002;PMS7003;27693;50.506;30.832;2023-05-21T05:42:00;7.55;7.55;6.00
42002;PMS7003;27693;50.506;30.832;2023-05-21T05:43:04;10.50;9.00;7.30
42002;PMS7003;27693;50.506;30.832;2023-05-21T05:44:06;19.20;15.50;12.60
42002;PMS7003;27693;50.506;30.832;2023-05-21T05:45:10;14.30;12.80;9.80
42002;PMS7003;27693;50.506;30.832;2023-05-21T05:46:14;9.80;8.40;7.70
42002;PMS7003;27693;50.506;30.832;2023-05-21T05:47:17;12.64;12.00;9.55
42002;PMS7003;27693;50.506;30.832;2023-05-21T05:48:20;10.20;10.20;8.20
42002;PMS7003;27693;50.506;30.832;2023-05-21T05:49:23;10.00;8.80;7.80
42002;PMS7003;27693;50.506;30.832;2023-05-21T05:50:27;10.30;9.50;7.80
42002;PMS7003;27693;50.506;30.832;2023-05-21T05:51:30;12.80;9.70;7.60
42002;PMS7003;27693;50.506;30.832;2023-05-21T05:52:32;11.70;9.60;7.40
42002;PMS7003;27693;50.506;30.832;2023-05-21T05:53:34;12.80;10.20;7.30
42002;PMS7003;27693;50.506;30.832;2023-05-21T05:54:37;9.60;8.70;7.60
42002;PMS7003;27693;50.506;30.832;2023-05-21T05:55:41;7.10;6.10;4.80
42002;PMS7003;27693;50.506;30.832;2023-05-21T05:56:45;10.70;9.40;7.30
42002;PMS7003;27693;50.506;30.832;2023-05-21T05:57:49;8.10;7.80;7.00
42002;PMS7003;27693;50.506;30.832;2023-05-21T05:58:52;16.73;13.55;9.64
42002;PMS7003;27693;50.506;30.832;2023-05-21T05:59:55;9.09;7.00;6.45
42002;PMS7003;27693;50.506;30.832;2023-05-21T06:00:58;13.00;7.90;6.80
42002;PMS7003;27693;50.506;30.832;2023-05-21T06:02:01;6.90;5.80;5.40
42002;PMS7003;27693;50.506;30.832;2023-05-21T06:03:03;6.60;6.40;5.10
42002;PMS7003;27693;50.506;30.832;2023-05-21T06:04:06;7.40;6.50;5.50
42002;PMS7003;27693;50.506;30.832;2023-05-21T06:05:10;7.60;7.50;5.80
42002;PMS7003;27693;50.506;30.832;2023-05-21T06:06:14;7.90;6.50;5.00